Time;durP1;ratioP1;P1;durP2;ratioP2;P2;SDS_P1;SDS_P2;PMS_P1;PMS_P2;Temp;Humidity;BMP_temperature;BMP_pressure;BME280_temperature;BME280_humidity;BME280_pressure;Samples;Min_cycle;Max_cycle;Signal;HPM_P1;HPM_P2
2021/11/23 00:01:17;;;;;;;15.35;10.27;;;;;;;;;;5048325;28;82664;-67
2021/11/23 00:03:45;;;;;;;12.70;10.40;;;;;;;;;;5049883;28;43330;-66
2021/11/23 00:06:11;;;;;;;13.10;9.90;;;;;;;;;;5050725;28;49484;-68
2021/11/23 00:08:40;;;;;;;13.50;10.20;;;;;;;;;;5030448;28;81590;-67
2021/11/23 00:11:07;;;;;;;14.43;12.18;;;;;;;;;;5035284;28;83684;-67
2021/11/23 00:13:34;;;;;;;14.77;11.55;;;;;;;;;;5054465;28;20268;-67
2021/11/23 00:16:01;;;;;;;14.23;11.25;;;;;;;;;;5054220;28;20049;-68
2021/11/23 00:18:28;;;;;;;17.50;12.45;;;;;;;;;;5055291;28;20044;-69
2021/11/23 00:20:54;;;;;;;11.50;9.23;;;;;;;;;;5056206;28;20049;-67
2021/11/23 00:23:22;;;;;;;11.48;8.10;;;;;;;;;;5060153;28;20127;-68
2021/11/23 00:25:48;;;;;;;11.38;8.68;;;;;;;;;;5060664;28;20045;-68
2021/11/23 00:28:15;;;;;;;11.27;8.88;;;;;;;;;;5061333;28;20053;-67
2021/11/23 00:30:45;;;;;;;13.30;8.45;;;;;;;;;;5060618;28;20084;-68
2021/11/23 00:33:13;;;;;;;10.55;8.65;;;;;;;;;;5061213;28;20050;-68
2021/11/23 00:35:41;;;;;;;11.63;8.60;;;;;;;;;;5061258;28;20060;-69
2021/11/23 00:38:13;;;;;;;10.18;7.65;;;;;;;;;;5061046;28;20050;-69
2021/11/23 00:40:39;;;;;;;10.48;8.90;;;;;;;;;;5061053;28;20597;-68
2021/11/23 00:43:07;;;;;;;8.32;7.38;;;;;;;;;;5061272;28;20056;-67
2021/11/23 00:45:35;;;;;;;8.00;7.20;;;;;;;;;;5061244;28;20504;-66
2021/11/23 00:48:03;;;;;;;9.63;7.25;;;;;;;;;;5060943;28;20054;-68
2021/11/23 00:50:30;;;;;;;9.43;7.50;;;;;;;;;;5061900;28;20072;-67
2021/11/23 00:52:57;;;;;;;10.00;6.90;;;;;;;;;;5060670;28;20077;-68
2021/11/23 00:55:24;;;;;;;8.85;6.30;;;;;;;;;;5061180;28;20515;-66
2021/11/23 00:57:51;;;;;;;11.80;7.38;;;;;;;;;;5061105;28;20424;-66
2021/11/23 01:00:18;;;;;;;8.93;7.78;;;;;;;;;;5061288;28;20049;-66
2021/11/23 01:02:45;;;;;;;15.48;7.75;;;;;;;;;;5057038;28;20037;-66
2021/11/23 01:05:13;;;;;;;11.75;7.28;;;;;;;;;;5055625;28;20052;-66
2021/11/23 01:07:40;;;;;;;9.75;7.55;;;;;;;;;;5055064;28;20056;-66
2021/11/23 01:10:07;;;;;;;9.13;6.82;;;;;;;;;;5054403;28;20037;-66
2021/11/23 01:12:35;;;;;;;7.70;6.40;;;;;;;;;;5052748;28;78462;-66
2021/11/23 01:15:04;;;;;;;8.80;6.93;;;;;;;;;;5054904;28;20513;-66
2021/11/23 01:17:31;;;;;;;9.02;6.93;;;;;;;;;;5055169;28;20045;-66
2021/11/23 01:19:58;;;;;;;9.80;8.23;;;;;;;;;;5052235;28;79312;-67
2021/11/23 01:22:25;;;;;;;9.93;8.68;;;;;;;;;;5012616;28;81760;-67
2021/11/23 01:24:53;;;;;;;9.27;8.30;;;;;;;;;;4990325;28;81800;-66
2021/11/23 01:27:20;;;;;;;14.18;7.55;;;;;;;;;;5006857;28;82211;-66
2021/11/23 01:29:47;;;;;;;7.70;6.90;;;;;;;;;;5000401;28;81725;-67
2021/11/23 01:32:14;;;;;;;15.85;8.82;;;;;;;;;;4994778;28;83744;-66
2021/11/23 01:34:41;;;;;;;10.80;7.65;;;;;;;;;;4987182;28;81855;-68
2021/11/23 01:37:08;;;;;;;8.85;7.57;;;;;;;;;;4993142;28;81804;-68
2021/11/23 01:39:35;;;;;;;11.65;8.30;;;;;;;;;;4987347;28;84653;-68
2021/11/23 01:42:02;;;;;;;14.45;9.02;;;;;;;;;;5003594;28;83527;-69
2021/11/23 01:44:30;;;;;;;10.63;8.55;;;;;;;;;;5022778;28;81722;-69
2021/11/23 01:46:57;;;;;;;11.25;10.13;;;;;;;;;;5050877;28;77469;-70
2021/11/23 01:49:24;;;;;;;12.65;10.30;;;;;;;;;;5043550;28;20045;-69
2021/11/23 01:51:51;;;;;;;11.45;9.38;;;;;;;;;;5059394;28;20052;-69
2021/11/23 01:54:18;;;;;;;10.18;8.27;;;;;;;;;;5057668;28;20579;-70
2021/11/23 01:56:45;;;;;;;11.57;9.45;;;;;;;;;;5051652;28;20073;-69
2021/11/23 01:59:12;;;;;;;11.10;9.88;;;;;;;;;;5050783;28;20127;-69
2021/11/23 02:01:40;;;;;;;14.25;9.68;;;;;;;;;;5045812;28;74593;-69
2021/11/23 02:04:07;;;;;;;13.63;10.45;;;;;;;;;;5057333;28;20051;-68
2021/11/23 02:06:34;;;;;;;14.85;10.98;;;;;;;;;;5057681;28;20045;-68
2021/11/23 02:09:03;;;;;;;15.82;10.57;;;;;;;;;;5057290;28;20038;-69
2021/11/23 02:11:30;;;;;;;11.20;9.65;;;;;;;;;;5057026;28;20061;-68
2021/11/23 02:14:01;;;;;;;16.83;11.98;;;;;;;;;;5057394;28;20053;-69
2021/11/23 02:16:28;;;;;;;13.82;12.27;;;;;;;;;;5057512;28;20565;-69
2021/11/23 02:18:55;;;;;;;16.02;12.25;;;;;;;;;;5057420;28;20041;-69
2021/11/23 02:21:22;;;;;;;13.40;11.45;;;;;;;;;;5060043;28;20045;-69
2021/11/23 02:23:49;;;;;;;18.00;11.38;;;;;;;;;;5061359;28;20080;-69
2021/11/23 02:26:16;;;;;;;13.98;10.43;;;;;;;;;;5061657;28;20061;-69
2021/11/23 02:28:43;;;;;;;16.98;13.52;;;;;;;;;;5063206;28;20055;-69
2021/11/23 02:31:10;;;;;;;17.67;11.57;;;;;;;;;;5061980;28;20033;-70
2021/11/23 02:33:38;;;;;;;15.32;13.00;;;;;;;;;;5063276;28;20057;-69
2021/11/23 02:36:08;;;;;;;13.00;11.13;;;;;;;;;;5063106;28;20121;-68
2021/11/23 02:38:36;;;;;;;16.45;11.40;;;;;;;;;;5063235;28;20045;-68
2021/11/23 02:41:04;;;;;;;13.80;10.40;;;;;;;;;;5069270;28;20052;-68
2021/11/23 02:43:32;;;;;;;14.38;11.20;;;;;;;;;;5063498;28;20128;-68
2021/11/23 02:46:00;;;;;;;15.90;11.80;;;;;;;;;;5063027;28;20041;-69
2021/11/23 02:48:27;;;;;;;14.43;11.40;;;;;;;;;;5077669;28;20072;-69
2021/11/23 02:53:30;;;;;;;16.75;12.50;;;;;;;;;;5062478;28;20064;-68
2021/11/23 02:55:59;;;;;;;16.77;13.80;;;;;;;;;;5063011;28;20633;-69
2021/11/23 02:58:29;;;;;;;16.35;12.13;;;;;;;;;;5062950;28;20045;-69
2021/11/23 03:01:00;;;;;;;16.73;11.32;;;;;;;;;;5063043;28;20037;-68
2021/11/23 03:03:28;;;;;;;14.10;11.10;;;;;;;;;;5062390;28;20085;-69
2021/11/23 03:05:56;;;;;;;13.13;11.23;;;;;;;;;;5062864;28;20601;-68
2021/11/23 03:08:24;;;;;;;15.15;11.68;;;;;;;;;;5062760;28;20049;-68
2021/11/23 03:10:51;;;;;;;12.77;10.13;;;;;;;;;;5061489;28;20439;-68
2021/11/23 03:13:18;;;;;;;13.57;11.80;;;;;;;;;;5062558;28;20101;-67
2021/11/23 03:15:45;;;;;;;24.55;14.18;;;;;;;;;;5062712;28;20054;-67
2021/11/23 03:18:12;;;;;;;15.15;12.27;;;;;;;;;;5062509;28;20049;-68
2021/11/23 03:20:39;;;;;;;13.75;11.90;;;;;;;;;;5061962;28;20511;-67
2021/11/23 03:23:06;;;;;;;14.27;11.38;;;;;;;;;;5062517;28;20404;-67
2021/11/23 03:25:33;;;;;;;14.55;12.50;;;;;;;;;;5061455;28;20054;-67
2021/11/23 03:28:03;;;;;;;17.20;11.48;;;;;;;;;;5062418;28;20099;-67
2021/11/23 03:30:32;;;;;;;14.88;12.35;;;;;;;;;;5062244;28;20740;-66
2021/11/23 03:33:00;;;;;;;15.63;11.50;;;;;;;;;;5062438;28;20057;-66
2021/11/23 03:35:30;;;;;;;19.25;11.88;;;;;;;;;;5061673;28;20061;-66
2021/11/23 03:37:57;;;;;;;13.90;11.73;;;;;;;;;;5062884;28;20071;-66
2021/11/23 03:40:26;;;;;;;14.43;11.75;;;;;;;;;;5061912;28;20092;-66
2021/11/23 03:42:54;;;;;;;15.23;13.02;;;;;;;;;;5061489;28;20056;-66
2021/11/23 03:45:22;;;;;;;15.73;12.63;;;;;;;;;;5062521;28;20617;-66
2021/11/23 03:47:49;;;;;;;17.13;12.40;;;;;;;;;;5061849;28;20038;-65
2021/11/23 03:50:17;;;;;;;14.00;11.80;;;;;;;;;;5062068;28;20107;-66
2021/11/23 03:52:46;;;;;;;15.32;12.63;;;;;;;;;;5061967;28;20103;-66
2021/11/23 03:55:15;;;;;;;14.73;11.95;;;;;;;;;;5082358;28;20088;-66
2021/11/23 03:57:43;;;;;;;11.73;10.52;;;;;;;;;;5081319;28;20057;-66
2021/11/23 04:00:12;;;;;;;13.32;10.80;;;;;;;;;;5082337;28;20060;-67
2021/11/23 04:02:41;;;;;;;13.50;12.02;;;;;;;;;;5081510;28;20037;-67
2021/11/23 04:05:09;;;;;;;13.57;10.27;;;;;;;;;;5082149;28;20103;-66
2021/11/23 04:07:40;;;;;;;13.35;10.82;;;;;;;;;;5081522;28;20558;-67
2021/11/23 04:10:08;;;;;;;12.73;11.43;;;;;;;;;;5081808;28;20087;-66
2021/11/23 04:12:36;;;;;;;15.65;12.57;;;;;;;;;;5081756;28;20056;-66
2021/11/23 04:15:04;;;;;;;14.43;11.95;;;;;;;;;;5081398;28;20058;-66
2021/11/23 04:17:31;;;;;;;14.02;12.00;;;;;;;;;;5081952;28;20041;-67
2021/11/23 04:19:58;;;;;;;14.02;11.07;;;;;;;;;;5081187;28;20044;-67
2021/11/23 04:22:25;;;;;;;15.85;13.60;;;;;;;;;;5082039;28;20061;-67
2021/11/23 04:24:52;;;;;;;18.40;13.93;;;;;;;;;;5081622;28;20056;-67
2021/11/23 04:27:19;;;;;;;16.60;13.13;;;;;;;;;;5081364;28;20044;-66
2021/11/23 04:29:46;;;;;;;18.52;14.68;;;;;;;;;;5081503;28;20051;-66
2021/11/23 04:32:13;;;;;;;18.75;14.25;;;;;;;;;;5079848;28;20507;-66
2021/11/23 04:34:40;;;;;;;16.45;13.75;;;;;;;;;;5081326;28;20053;-66
2021/11/23 04:37:07;;;;;;;20.77;15.52;;;;;;;;;;5081028;28;20049;-65
2021/11/23 04:39:34;;;;;;;23.73;15.60;;;;;;;;;;5081717;28;20055;-66
2021/11/23 04:42:00;;;;;;;23.55;16.88;;;;;;;;;;5067845;28;20041;-66
2021/11/23 04:44:28;;;;;;;20.05;13.88;;;;;;;;;;5055480;28;20586;-66
2021/11/23 04:46:55;;;;;;;24.30;15.63;;;;;;;;;;5038488;28;20061;-67
2021/11/23 04:49:22;;;;;;;25.00;15.05;;;;;;;;;;5043009;28;20037;-67
2021/11/23 04:51:49;;;;;;;18.17;13.48;;;;;;;;;;5058593;28;27710;-66
2021/11/23 04:54:16;;;;;;;20.92;14.73;;;;;;;;;;5074163;28;57595;-66
2021/11/23 04:56:43;;;;;;;18.38;13.60;;;;;;;;;;5077187;28;20040;-67
2021/11/23 04:59:10;;;;;;;25.17;15.88;;;;;;;;;;5077046;28;20045;-67
2021/11/23 05:01:38;;;;;;;17.60;15.43;;;;;;;;;;5078228;28;20048;-68
2021/11/23 05:04:06;;;;;;;23.65;16.55;;;;;;;;;;5077470;28;20045;-69
2021/11/23 05:06:33;;;;;;;25.35;15.52;;;;;;;;;;5078479;28;20045;-69
2021/11/23 05:09:00;;;;;;;16.63;13.30;;;;;;;;;;5077168;28;20397;-68
2021/11/23 05:11:28;;;;;;;19.42;13.05;;;;;;;;;;5076964;28;20049;-67
2021/11/23 05:13:58;;;;;;;18.35;12.73;;;;;;;;;;5076632;28;20068;-67
2021/11/23 05:16:24;;;;;;;18.50;11.13;;;;;;;;;;5061789;28;81679;-67
2021/11/23 05:18:51;;;;;;;18.80;12.65;;;;;;;;;;5076600;28;22053;-68
2021/11/23 05:21:18;;;;;;;19.80;13.73;;;;;;;;;;5077574;28;20060;-67
2021/11/23 05:23:45;;;;;;;21.25;11.63;;;;;;;;;;5077664;28;20041;-67
2021/11/23 05:26:12;;;;;;;15.65;12.45;;;;;;;;;;5077662;28;20114;-68
2021/11/23 05:28:39;;;;;;;16.98;11.52;;;;;;;;;;5078174;28;20068;-66
2021/11/23 05:31:06;;;;;;;16.88;10.98;;;;;;;;;;5076965;28;20041;-66
2021/11/23 05:33:34;;;;;;;21.38;11.48;;;;;;;;;;5064712;28;82095;-66
2021/11/23 05:36:01;;;;;;;12.15;10.48;;;;;;;;;;5055462;28;82540;-66
2021/11/23 05:38:28;;;;;;;16.40;10.48;;;;;;;;;;5061623;28;81106;-65
2021/11/23 05:40:55;;;;;;;16.00;10.88;;;;;;;;;;5054723;28;81606;-65
2021/11/23 05:43:22;;;;;;;12.30;10.98;;;;;;;;;;5058720;28;81942;-66
2021/11/23 05:45:48;;;;;;;15.80;11.93;;;;;;;;;;5045436;28;82754;-65
2021/11/23 05:48:15;;;;;;;18.25;10.93;;;;;;;;;;5075915;28;29431;-68
2021/11/23 05:50:42;;;;;;;15.57;9.15;;;;;;;;;;5053422;28;20132;-66
2021/11/23 05:53:09;;;;;;;13.32;9.63;;;;;;;;;;5046283;28;20054;-68
2021/11/23 05:55:36;;;;;;;26.35;10.88;;;;;;;;;;5047765;28;79159;-66
2021/11/23 05:58:04;;;;;;;13.48;10.57;;;;;;;;;;5007730;28;82567;-65
2021/11/23 06:00:31;;;;;;;15.43;9.48;;;;;;;;;;5016675;28;82434;-66
2021/11/23 06:02:58;;;;;;;13.45;9.65;;;;;;;;;;4984828;28;81445;-66
2021/11/23 06:05:27;;;;;;;13.55;10.40;;;;;;;;;;4992694;28;82264;-63
2021/11/23 06:07:53;;;;;;;15.10;10.85;;;;;;;;;;5033232;28;84404;-66
2021/11/23 06:10:21;;;;;;;17.25;9.68;;;;;;;;;;5020548;28;82865;-63
2021/11/23 06:12:49;;;;;;;13.10;10.25;;;;;;;;;;4999805;28;81024;-65
2021/11/23 06:15:18;;;;;;;13.40;7.82;;;;;;;;;;5046700;28;39896;-62
2021/11/23 06:17:47;;;;;;;14.43;9.38;;;;;;;;;;5054171;28;20041;-65
2021/11/23 06:20:14;;;;;;;12.05;8.82;;;;;;;;;;5023875;28;81720;-67
2021/11/23 06:22:41;;;;;;;16.23;9.60;;;;;;;;;;5039000;28;81905;-63
2021/11/23 06:25:08;;;;;;;17.42;9.48;;;;;;;;;;5049957;28;21855;-61
2021/11/23 06:27:36;;;;;;;11.02;8.82;;;;;;;;;;5046930;28;20072;-61
2021/11/23 06:30:06;;;;;;;13.88;10.15;;;;;;;;;;5043094;28;28640;-62
2021/11/23 06:32:34;;;;;;;15.68;8.73;;;;;;;;;;5023957;28;82599;-61
2021/11/23 06:35:01;;;;;;;12.98;8.27;;;;;;;;;;4984098;28;84549;-63
2021/11/23 06:37:28;;;;;;;14.32;8.40;;;;;;;;;;4986306;28;84371;-61
2021/11/23 06:39:55;;;;;;;15.90;9.57;;;;;;;;;;4981313;28;81718;-61
2021/11/23 06:42:22;;;;;;;19.15;10.40;;;;;;;;;;4983594;28;81843;-62
2021/11/23 06:44:49;;;;;;;13.77;9.68;;;;;;;;;;4980892;28;83604;-61
2021/11/23 06:47:16;;;;;;;16.50;9.90;;;;;;;;;;4990441;28;83303;-62
2021/11/23 06:49:43;;;;;;;15.85;10.15;;;;;;;;;;4977048;28;82145;-60
2021/11/23 06:52:11;;;;;;;15.18;9.75;;;;;;;;;;4967433;28;82626;-58
2021/11/23 06:54:38;;;;;;;9.57;7.90;;;;;;;;;;4975964;28;82619;-59
2021/11/23 06:57:05;;;;;;;13.35;7.72;;;;;;;;;;4982064;28;83531;-61
2021/11/23 06:59:37;;;;;;;12.88;8.65;;;;;;;;;;4983317;28;82721;-60
2021/11/23 07:02:04;;;;;;;15.63;9.55;;;;;;;;;;4977509;28;81970;-61
2021/11/23 07:04:33;;;;;;;15.57;9.65;;;;;;;;;;4979923;28;83715;-61
2021/11/23 07:07:00;;;;;;;12.85;8.32;;;;;;;;;;4981310;28;83375;-60
2021/11/23 07:09:27;;;;;;;13.02;8.25;;;;;;;;;;4984366;28;82244;-62
2021/11/23 07:11:54;;;;;;;19.90;10.95;;;;;;;;;;4971752;28;82145;-62
2021/11/23 07:14:21;;;;;;;13.82;9.43;;;;;;;;;;4979329;28;82680;-62
2021/11/23 07:16:49;;;;;;;15.32;8.48;;;;;;;;;;4977620;28;83521;-63
2021/11/23 07:19:16;;;;;;;15.45;9.43;;;;;;;;;;4983333;28;82327;-61
2021/11/23 07:21:43;;;;;;;18.30;11.68;;;;;;;;;;4977042;28;81956;-61
2021/11/23 07:24:10;;;;;;;14.75;10.43;;;;;;;;;;4979889;28;83196;-61
2021/11/23 07:26:38;;;;;;;23.50;14.10;;;;;;;;;;4973688;28;84423;-62
2021/11/23 07:29:06;;;;;;;15.80;11.48;;;;;;;;;;4970489;28;83466;-61
2021/11/23 07:31:33;;;;;;;13.20;9.63;;;;;;;;;;4979914;28;82391;-59
2021/11/23 07:34:01;;;;;;;13.60;10.40;;;;;;;;;;4983101;28;82916;-59
2021/11/23 07:36:28;;;;;;;20.00;10.75;;;;;;;;;;4980459;28;84430;-60
2021/11/23 07:38:56;;;;;;;13.32;11.75;;;;;;;;;;4979566;28;82914;-60
2021/11/23 07:41:23;;;;;;;12.95;10.07;;;;;;;;;;4983335;28;82838;-60
2021/11/23 07:43:50;;;;;;;15.45;12.90;;;;;;;;;;4984763;28;82748;-60
2021/11/23 07:46:18;;;;;;;17.40;11.48;;;;;;;;;;4983443;28;84419;-61
2021/11/23 07:48:45;;;;;;;13.02;9.40;;;;;;;;;;4983578;28;84178;-60
2021/11/23 07:51:13;;;;;;;52.65;9.55;;;;;;;;;;4983282;28;81867;-61
2021/11/23 07:53:40;;;;;;;11.98;8.57;;;;;;;;;;4982896;28;82774;-61
2021/11/23 07:56:07;;;;;;;9.60;8.40;;;;;;;;;;4983278;28;83407;-60
2021/11/23 07:58:34;;;;;;;14.02;11.02;;;;;;;;;;4981493;28;82061;-60
2021/11/23 08:01:06;;;;;;;18.30;10.20;;;;;;;;;;4982881;28;82490;-60
2021/11/23 08:03:33;;;;;;;21.80;13.00;;;;;;;;;;4983010;28;82653;-60
2021/11/23 08:06:00;;;;;;;20.20;12.50;;;;;;;;;;4983681;28;84261;-57
2021/11/23 08:08:29;;;;;;;28.45;15.88;;;;;;;;;;4983471;28;83342;-60
2021/11/23 08:10:58;;;;;;;24.27;14.98;;;;;;;;;;4983085;28;82958;-60
2021/11/23 08:13:25;;;;;;;15.55;11.60;;;;;;;;;;4982658;28;83701;-58
2021/11/23 08:15:52;;;;;;;19.55;12.48;;;;;;;;;;4983586;28;84355;-61
2021/11/23 08:18:19;;;;;;;20.75;13.70;;;;;;;;;;4984171;28;83975;-60
2021/11/23 08:20:47;;;;;;;22.67;13.27;;;;;;;;;;4983712;28;82439;-59
2021/11/23 08:23:14;;;;;;;15.00;11.68;;;;;;;;;;4983974;28;83357;-60
2021/11/23 08:25:41;;;;;;;21.58;11.80;;;;;;;;;;4983644;28;84671;-61
2021/11/23 08:28:08;;;;;;;17.98;10.52;;;;;;;;;;4985024;28;84331;-60
2021/11/23 08:30:35;;;;;;;14.85;9.70;;;;;;;;;;4987007;28;82254;-60
2021/11/23 08:33:02;;;;;;;12.82;9.55;;;;;;;;;;4987909;28;82957;-59
2021/11/23 08:35:29;;;;;;;15.70;9.23;;;;;;;;;;4988639;28;83429;-59
2021/11/23 08:37:56;;;;;;;13.05;9.70;;;;;;;;;;4987541;28;84176;-59
2021/11/23 08:40:23;;;;;;;14.02;10.40;;;;;;;;;;4987984;28;81856;-57
2021/11/23 08:42:51;;;;;;;15.93;9.82;;;;;;;;;;4987178;28;83599;-55
2021/11/23 08:45:18;;;;;;;15.88;9.73;;;;;;;;;;4988335;28;82466;-59
2021/11/23 08:47:47;;;;;;;13.27;7.80;;;;;;;;;;4987079;28;81842;-56
2021/11/23 08:50:14;;;;;;;11.45;8.80;;;;;;;;;;4987947;28;81915;-54
2021/11/23 08:52:42;;;;;;;13.18;8.35;;;;;;;;;;4987150;28;83593;-59
2021/11/23 08:55:09;;;;;;;10.85;8.68;;;;;;;;;;4988446;28;83544;-58
2021/11/23 08:57:36;;;;;;;18.52;9.43;;;;;;;;;;4987372;28;81711;-59
2021/11/23 09:00:14;;;;;;;12.60;9.25;;;;;;;;;;4987654;28;81770;-57
2021/11/23 09:02:42;;;;;;;12.93;9.90;;;;;;;;;;4987176;28;84639;-58
2021/11/23 09:05:11;;;;;;;12.20;9.18;;;;;;;;;;4986931;28;83500;-57
2021/11/23 09:07:39;;;;;;;18.83;7.65;;;;;;;;;;4987310;28;82334;-58
2021/11/23 09:10:09;;;;;;;11.15;8.23;;;;;;;;;;4988860;28;81917;-58
2021/11/23 09:12:36;;;;;;;10.65;7.30;;;;;;;;;;4988874;28;83700;-59
2021/11/23 09:15:04;;;;;;;8.18;6.50;;;;;;;;;;4986444;28;82387;-58
2021/11/23 09:17:31;;;;;;;12.25;7.15;;;;;;;;;;4987675;28;81890;-57
2021/11/23 09:19:58;;;;;;;12.48;8.82;;;;;;;;;;4987134;28;81531;-58
2021/11/23 09:22:24;;;;;;;14.55;7.55;;;;;;;;;;4988171;28;82579;-60
2021/11/23 09:24:54;;;;;;;10.18;7.30;;;;;;;;;;4987178;28;83624;-59
2021/11/23 09:27:21;;;;;;;11.18;8.70;;;;;;;;;;4978758;28;82754;-58
2021/11/23 09:29:48;;;;;;;10.10;7.47;;;;;;;;;;4987871;28;82062;-58
2021/11/23 09:32:16;;;;;;;14.82;7.47;;;;;;;;;;4987114;28;81766;-58
2021/11/23 09:34:43;;;;;;;9.82;7.13;;;;;;;;;;4987255;28;83369;-58
2021/11/23 09:37:10;;;;;;;10.98;8.32;;;;;;;;;;4985980;28;81858;-56
2021/11/23 09:39:37;;;;;;;11.15;8.43;;;;;;;;;;4986077;28;82199;-57
2021/11/23 09:42:04;;;;;;;10.65;8.63;;;;;;;;;;4985940;28;83586;-57
2021/11/23 09:44:32;;;;;;;11.85;6.57;;;;;;;;;;4979820;28;83227;-57
2021/11/23 09:46:59;;;;;;;14.70;7.75;;;;;;;;;;4987792;28;82016;-59
2021/11/23 09:49:26;;;;;;;12.38;7.38;;;;;;;;;;4986619;28;81982;-56
2021/11/23 09:51:53;;;;;;;14.90;7.38;;;;;;;;;;4986429;28;84725;-59
2021/11/23 09:54:20;;;;;;;19.20;7.47;;;;;;;;;;4986853;28;83282;-57
2021/11/23 09:56:48;;;;;;;11.48;7.13;;;;;;;;;;4986717;28;81898;-55
2021/11/23 09:59:15;;;;;;;14.50;9.35;;;;;;;;;;4986069;28;81911;-57
2021/11/23 10:01:49;;;;;;;13.07;8.80;;;;;;;;;;4986488;28;83649;-59
2021/11/23 10:04:18;;;;;;;15.60;9.70;;;;;;;;;;4986745;28;82529;-58
2021/11/23 10:07:11;;;;;;;15.70;8.90;;;;;;;;;;4986827;28;81842;-58
2021/11/23 10:09:39;;;;;;;17.55;9.18;;;;;;;;;;4987277;28;81364;-57
2021/11/23 10:12:11;;;;;;;13.02;9.00;;;;;;;;;;4982069;28;83256;-62
2021/11/23 10:14:39;;;;;;;12.88;8.50;;;;;;;;;;4976801;28;82691;-60
2021/11/23 10:17:23;;;;;;;17.75;8.40;;;;;;;;;;4997000;28;82772;-60
2021/11/23 10:19:50;;;;;;;11.45;7.35;;;;;;;;;;4986588;28;82043;-61
2021/11/23 10:22:35;;;;;;;10.05;6.85;;;;;;;;;;5001367;28;83672;-60
2021/11/23 10:25:07;;;;;;;14.57;6.50;;;;;;;;;;4986697;28;83575;-59
2021/11/23 10:27:35;;;;;;;11.02;6.38;;;;;;;;;;4986034;28;81769;-59
2021/11/23 10:30:05;;;;;;;14.85;7.15;;;;;;;;;;4986800;28;81878;-59
2021/11/23 10:33:02;;;;;;;8.05;5.20;;;;;;;;;;4985942;28;82794;-60
2021/11/23 10:35:28;;;;;;;14.20;7.03;;;;;;;;;;4978808;28;83531;-60
2021/11/23 10:37:55;;;;;;;12.85;5.50;;;;;;;;;;4985802;28;81706;-59
2021/11/23 10:40:28;;;;;;;12.30;5.70;;;;;;;;;;4986071;28;81944;-59
2021/11/23 10:43:05;;;;;;;17.15;6.03;;;;;;;;;;4978692;28;83594;-58
2021/11/23 10:45:37;;;;;;;12.23;5.93;;;;;;;;;;4984278;28;84437;-60
2021/11/23 10:48:06;;;;;;;11.60;5.65;;;;;;;;;;4985343;28;81781;-58
2021/11/23 10:50:34;;;;;;;10.95;6.18;;;;;;;;;;4985296;28;81778;-60
2021/11/23 10:53:12;;;;;;;12.20;6.72;;;;;;;;;;4985791;28;83750;-58
2021/11/23 10:55:42;;;;;;;20.42;6.28;;;;;;;;;;4998703;28;83653;-58
2021/11/23 10:58:11;;;;;;;14.55;5.43;;;;;;;;;;4988451;28;81904;-60
2021/11/23 11:00:43;;;;;;;9.85;5.57;;;;;;;;;;4985805;28;81441;-60
2021/11/23 11:03:12;;;;;;;13.65;5.38;;;;;;;;;;4986401;28;83690;-60
2021/11/23 11:05:41;;;;;;;12.93;4.65;;;;;;;;;;4985266;28;82521;-59
2021/11/23 11:08:09;;;;;;;6.30;4.72;;;;;;;;;;4984716;28;82829;-58
2021/11/23 11:10:37;;;;;;;13.70;4.72;;;;;;;;;;4980596;28;81890;-59
2021/11/23 11:13:09;;;;;;;13.77;4.75;;;;;;;;;;4983917;28;83490;-59
2021/11/23 11:15:39;;;;;;;8.27;4.80;;;;;;;;;;4999268;28;83354;-62
2021/11/23 11:18:12;;;;;;;11.70;5.13;;;;;;;;;;4999598;28;82465;-61
2021/11/23 11:20:49;;;;;;;11.90;5.35;;;;;;;;;;4985274;28;81786;-60
2021/11/23 11:23:28;;;;;;;6.88;4.45;;;;;;;;;;4985963;28;83768;-60
2021/11/23 11:26:04;;;;;;;10.23;4.18;;;;;;;;;;4986651;28;82446;-59
2021/11/23 11:28:52;;;;;;;13.20;5.20;;;;;;;;;;4983392;28;81872;-60
2021/11/23 11:31:46;;;;;;;18.90;5.40;;;;;;;;;;4983873;28;82505;-60
2021/11/23 11:34:28;;;;;;;8.55;4.50;;;;;;;;;;4974951;28;84909;-60
2021/11/23 11:37:03;;;;;;;8.98;5.25;;;;;;;;;;4982264;28;84277;-59
2021/11/23 11:39:36;;;;;;;11.68;5.35;;;;;;;;;;4982793;28;82298;-59
2021/11/23 11:42:12;;;;;;;11.25;6.93;;;;;;;;;;4983271;28;82076;-61
2021/11/23 11:44:44;;;;;;;17.35;5.43;;;;;;;;;;4999030;28;83742;-59
2021/11/23 11:47:18;;;;;;;6.87;4.60;;;;;;;;;;4986035;28;83299;-60
2021/11/23 11:49:55;;;;;;;13.95;6.80;;;;;;;;;;4985520;28;81767;-60
2021/11/23 11:52:27;;;;;;;8.93;4.88;;;;;;;;;;4985490;28;81168;-60
2021/11/23 11:55:12;;;;;;;7.05;4.28;;;;;;;;;;4985395;28;82591;-60
2021/11/23 11:57:42;;;;;;;17.27;5.07;;;;;;;;;;4993885;28;83316;-59
2021/11/23 12:00:36;;;;;;;10.98;5.65;;;;;;;;;;4977083;28;82885;-59
2021/11/23 12:03:08;;;;;;;13.83;8.07;;;;;;;;;;4985334;28;82293;-59
2021/11/23 12:05:53;;;;;;;11.10;6.47;;;;;;;;;;4985045;28;83484;-60
2021/11/23 12:08:33;;;;;;;11.77;5.45;;;;;;;;;;4985415;28;83475;-60
2021/11/23 12:11:05;;;;;;;29.67;7.47;;;;;;;;;;4984214;28;81870;-59
2021/11/23 12:13:58;;;;;;;14.05;4.82;;;;;;;;;;4992571;28;81799;-60
2021/11/23 12:17:12;;;;;;;12.35;5.32;;;;;;;;;;4985351;28;83302;-59
2021/11/23 12:20:09;;;;;;;7.75;5.03;;;;;;;;;;4986356;28;83386;-60
2021/11/23 12:22:45;;;;;;;5.70;4.55;;;;;;;;;;4988406;28;82190;-60
2021/11/23 12:25:13;;;;;;;9.18;6.20;;;;;;;;;;4984701;28;81844;-59
2021/11/23 12:27:45;;;;;;;12.32;5.72;;;;;;;;;;4982628;28;84683;-60
2021/11/23 12:30:16;;;;;;;9.60;4.38;;;;;;;;;;4975616;28;83309;-59
2021/11/23 12:32:43;;;;;;;26.67;5.72;;;;;;;;;;4983295;28;81967;-62
2021/11/23 12:35:13;;;;;;;7.78;4.03;;;;;;;;;;4982255;28;82083;-64
2021/11/23 12:37:43;;;;;;;11.35;4.85;;;;;;;;;;4982136;28;83718;-63
2021/11/23 12:40:15;;;;;;;7.82;4.65;;;;;;;;;;4981649;28;83359;-64
2021/11/23 12:42:53;;;;;;;14.23;3.55;;;;;;;;;;4982247;28;82301;-65
2021/11/23 12:45:40;;;;;;;15.57;4.63;;;;;;;;;;4982691;28;81118;-67
2021/11/23 12:48:28;;;;;;;6.93;4.05;;;;;;;;;;4981432;28;83698;-65
2021/11/23 12:50:55;;;;;;;9.80;4.72;;;;;;;;;;4982773;28;83412;-68
2021/11/23 12:53:23;;;;;;;6.30;4.38;;;;;;;;;;4984402;28;83214;-68
2021/11/23 12:55:52;;;;;;;7.63;3.50;;;;;;;;;;4981561;28;81925;-67
2021/11/23 12:58:19;;;;;;;5.10;3.33;;;;;;;;;;4983891;28;82346;-64
2021/11/23 13:00:46;;;;;;;6.15;4.22;;;;;;;;;;4983846;28;83785;-66
2021/11/23 13:03:13;;;;;;;3.58;3.00;;;;;;;;;;4984284;28;81913;-65
2021/11/23 13:05:43;;;;;;;13.35;3.85;;;;;;;;;;4984617;28;81862;-65
2021/11/23 13:08:15;;;;;;;6.20;4.00;;;;;;;;;;4983622;28;82698;-62
2021/11/23 13:10:48;;;;;;;9.45;6.70;;;;;;;;;;4984215;28;83520;-64
2021/11/23 13:13:24;;;;;;;7.85;4.72;;;;;;;;;;4983775;28;81933;-63
2021/11/23 13:15:53;;;;;;;8.32;3.83;;;;;;;;;;4987084;28;81773;-64
2021/11/23 13:18:26;;;;;;;8.50;4.25;;;;;;;;;;4986941;28;83731;-63
2021/11/23 13:20:57;;;;;;;11.53;5.37;;;;;;;;;;4987975;28;83096;-64
2021/11/23 13:23:28;;;;;;;14.15;6.53;;;;;;;;;;4987240;28;81781;-64
2021/11/23 13:26:10;;;;;;;7.13;4.35;;;;;;;;;;4986403;28;81808;-64
2021/11/23 13:28:41;;;;;;;9.95;4.43;;;;;;;;;;4984201;28;83858;-61
2021/11/23 13:31:14;;;;;;;5.65;4.38;;;;;;;;;;4977546;28;83232;-63
2021/11/23 13:33:43;;;;;;;9.18;4.25;;;;;;;;;;4984472;28;82270;-62
2021/11/23 13:36:15;;;;;;;11.15;4.85;;;;;;;;;;4991965;28;81129;-63
2021/11/23 13:38:52;;;;;;;12.18;5.50;;;;;;;;;;4991443;28;82802;-63
2021/11/23 13:41:31;;;;;;;13.73;4.78;;;;;;;;;;4985310;28;83509;-60
2021/11/23 13:44:26;;;;;;;11.75;5.55;;;;;;;;;;4988030;28;83054;-66
2021/11/23 13:46:53;;;;;;;;;;;;;;;;;;4986717;28;81782;-62
2021/11/23 13:49:43;;;;;;;14.75;5.90;;;;;;;;;;4992561;28;82314;-60
2021/11/23 13:52:24;;;;;;;11.98;4.70;;;;;;;;;;4990577;28;83328;-62
2021/11/23 13:55:02;;;;;;;11.50;4.43;;;;;;;;;;4987419;28;81971;-63
2021/11/23 13:57:41;;;;;;;15.43;4.50;;;;;;;;;;4984638;28;81848;-63
2021/11/23 14:00:12;;;;;;;7.55;3.38;;;;;;;;;;4994792;28;82688;-63
2021/11/23 14:02:52;;;;;;;9.50;4.47;;;;;;;;;;4983302;28;82325;-62
2021/11/23 14:05:34;;;;;;;14.43;6.20;;;;;;;;;;4981789;28;81840;-63
2021/11/23 14:08:09;;;;;;;13.00;4.30;;;;;;;;;;4983471;28;81954;-62
2021/11/23 14:10:42;;;;;;;18.50;5.07;;;;;;;;;;4981747;28;84856;-62
2021/11/23 14:13:14;;;;;;;10.38;4.07;;;;;;;;;;4986194;28;84261;-62
2021/11/23 14:15:42;;;;;;;11.85;4.95;;;;;;;;;;4985381;28;82897;-63
2021/11/23 14:18:18;;;;;;;8.93;4.95;;;;;;;;;;4985048;28;81895;-63
2021/11/23 14:20:48;;;;;;;11.98;4.88;;;;;;;;;;4990631;28;82890;-61
2021/11/23 14:23:43;;;;;;;14.40;6.05;;;;;;;;;;4988563;28;83264;-61
2021/11/23 14:26:22;;;;;;;13.73;8.40;;;;;;;;;;4977966;28;81791;-63
2021/11/23 14:28:52;;;;;;;9.68;6.63;;;;;;;;;;4984089;28;81062;-61
2021/11/23 14:31:22;;;;;;;11.65;6.43;;;;;;;;;;4991895;28;82672;-60
2021/11/23 14:33:50;;;;;;;29.50;6.93;;;;;;;;;;4995974;28;83587;-59
2021/11/23 14:36:30;;;;;;;19.42;5.55;;;;;;;;;;4989867;28;83061;-59
2021/11/23 14:38:59;;;;;;;8.50;5.05;;;;;;;;;;4984412;28;82330;-57
2021/11/23 14:41:27;;;;;;;9.85;5.18;;;;;;;;;;4991980;28;83842;-60
2021/11/23 14:43:54;;;;;;;9.38;4.35;;;;;;;;;;4997864;28;83394;-59
2021/11/23 14:46:21;;;;;;;10.73;4.38;;;;;;;;;;4990748;28;82029;-59